Time,TemperatureF,DewpointF,PressureIn,WindDirection,WindDirectionDegrees,WindSpeedMPH,WindSpeedGustMPH,Humidity,HourlyPrecipIn,Conditions,Clouds,dailyrainin,SoftwareType,DateUTC
2013-09-06 00:01:00,60.4,11.0,29.97,NNW,330,0.0,0.0,14,0.00,,---,0.00,VWS V14.01,2013-09-06 04:01:00,
2013-09-06 00:02:00,60.4,11.0,29.97,NNW,330,0.0,0.0,14,0.00,,---,0.00,VWS V14.01,2013-09-06 04:02:00,
2013-09-06 00:07:00,60.3,15.3,29.97,NNW,330,0.0,0.0,17,0.00,,---,0.00,VWS V14.01,2013-09-06 04:07:00,
2013-09-06 00:12:00,60.1,15.1,29.97,NNW,330,0.0,0.0,17,0.00,,---,0.00,VWS V14.01,2013-09-06 04:12:00,
2013-09-06 00:17:00,59.7,10.5,29.97,NNW,330,0.0,0.0,14,0.00,,---,0.00,VWS V14.01,2013-09-06 04:17:00,
2013-09-06 00:22:00,59.7,10.5,30.00,NNW,330,0.0,0.0,14,0.00,,---,0.00,VWS V14.01,2013-09-06 04:22:00,
2013-09-06 00:27:00,59.5,10.3,30.00,NNW,330,0.0,0.0,14,0.00,,---,0.00,VWS V14.01,2013-09-06 04:27:00,
2013-09-06 00:32:00,59.2,10.0,30.00,NNW,330,0.0,0.0,14,0.00,,---,0.00,VWS V14.01,2013-09-06 04:32:00,
2013-09-06 00:37:00,58.8,14.1,30.00,NNW,330,0.0,0.0,17,0.00,,---,0.00,VWS V14.01,2013-09-06 04:37:00,
2013-09-06 00:42:00,58.3,16.2,30.00,NNW,330,0.0,0.0,19,0.00,,---,0.00,VWS V14.01,2013-09-06 04:42:00,
2013-09-06 00:47:00,58.1,19.5,30.00,NNW,330,0.0,0.0,22,0.00,,---,0.00,VWS V14.01,2013-09-06 04:47:00,
2013-09-06 00:52:00,58.1,21.5,30.00,NNW,330,0.0,0.0,24,0.00,,---,0.00,VWS V14.01,2013-09-06 04:52:00,
2013-09-06 00:57:00,57.9,22.3,30.00,NNW,330,0.0,0.0,25,0.00,,---,0.00,VWS V14.01,2013-09-06 04:57:00,
2013-09-06 01:02:00,57.6,22.0,30.00,NNW,330,0.0,0.0,25,0.00,,---,0.00,VWS V14.01,2013-09-06 05:02:00,
2013-09-06 01:07:00,57.6,22.0,30.00,NNW,330,0.0,0.0,25,0.00,,---,0.00,VWS V14.01,2013-09-06 05:07:00,
2013-09-06 01:12:00,57.7,22.2,30.00,NNW,330,0.0,0.0,25,0.00,,---,0.00,VWS V14.01,2013-09-06 05:12:00,
2013-09-06 01:17:00,57.7,22.2,30.00,NNW,330,0.0,0.0,25,0.00,,---,0.00,VWS V14.01,2013-09-06 05:17:00,
2013-09-06 01:22:00,57.2,21.7,30.00,NNW,330,0.0,0.0,25,0.00,,---,0.00,VWS V14.01,2013-09-06 05:22:00,
2013-09-06 01:27:00,56.8,22.3,30.00,NNW,330,0.0,0.0,26,0.00,,---,0.00,VWS V14.01,2013-09-06 05:27:00,
2013-09-06 01:32:00,56.8,22.3,30.00,NNW,330,0.0,0.0,26,0.00,,---,0.00,VWS V14.01,2013-09-06 05:32:00,
2013-09-06 01:37:00,56.7,22.2,30.00,NNW,330,0.0,0.0,26,0.00,,---,0.00,VWS V14.01,2013-09-06 05:37:00,
2013-09-06 01:42:00,56.1,21.7,30.00,NNW,330,0.0,0.0,26,0.00,,---,0.00,VWS V14.01,2013-09-06 05:42:00,
2013-09-06 01:47:00,55.9,22.5,30.00,NNW,330,0.0,0.0,27,0.00,,---,0.00,VWS V14.01,2013-09-06 05:47:00,
2013-09-06 01:52:00,55.8,23.2,30.00,NNW,330,0.0,0.0,28,0.00,,---,0.00,VWS V14.01,2013-09-06 05:52:00,
2013-09-06 01:57:00,55.6,23.9,30.00,NNW,330,0.0,0.0,29,0.00,,---,0.00,VWS V14.01,2013-09-06 05:57:00,
2013-09-06 02:02:00,55.4,23.7,30.00,NNW,330,0.0,0.0,29,0.00,,---,0.00,VWS V14.01,2013-09-06 06:02:00,
2013-09-06 02:07:00,55.6,23.9,30.00,NNW,330,0.0,0.0,29,0.00,,---,0.00,VWS V14.01,2013-09-06 06:07:00,
2013-09-06 02:12:00,55.8,24.0,30.00,NNW,330,0.0,0.0,29,0.00,,---,0.00,VWS V14.01,2013-09-06 06:12:00,
2013-09-06 02:17:00,55.9,24.2,30.00,NNW,330,0.0,0.0,29,0.00,,---,0.00,VWS V14.01,2013-09-06 06:17:00,
2013-09-06 02:22:00,55.8,24.0,30.00,NNW,330,0.0,0.0,29,0.00,,---,0.00,VWS V14.01,2013-09-06 06:22:00,
2013-09-06 02:27:00,55.6,23.9,30.00,NNW,330,0.0,0.0,29,0.00,,---,0.00,VWS V14.01,2013-09-06 06:27:00,
2013-09-06 02:32:00,55.8,25.6,30.00,NNW,330,0.0,0.0,31,0.00,,---,0.00,VWS V14.01,2013-09-06 06:32:00,
2013-09-06 02:37:00,55.6,24.7,30.00,NNW,330,0.0,0.0,30,0.00,,---,0.00,VWS V14.01,2013-09-06 06:37:00,
2013-09-06 02:42:00,55.8,24.8,30.00,NNW,330,0.0,0.0,30,0.00,,---,0.00,VWS V14.01,2013-09-06 06:42:00,
2013-09-06 02:47:00,55.6,23.9,30.00,NNW,330,0.0,0.0,29,0.00,,---,0.00,VWS V14.01,2013-09-06 06:47:00,
2013-09-06 02:52:00,55.6,23.9,30.00,NNW,330,0.0,0.0,29,0.00,,---,0.00,VWS V14.01,2013-09-06 06:52:00,
2013-09-06 02:57:00,55.8,22.3,30.00,NNW,330,0.0,0.0,27,0.00,,---,0.00,VWS V14.01,2013-09-06 06:57:00,
2013-09-06 03:02:00,55.9,21.6,30.00,NNW,330,0.0,0.0,26,0.00,,---,0.00,VWS V14.01,2013-09-06 07:02:00,
2013-09-06 03:07:00,55.9,21.6,30.00,NNW,330,0.0,0.0,26,0.00,,---,0.00,VWS V14.01,2013-09-06 07:07:00,
2013-09-06 03:12:00,56.1,21.7,30.00,NNW,330,0.0,0.0,26,0.00,,---,0.00,VWS V14.01,2013-09-06 07:12:00,
2013-09-06 03:17:00,56.1,21.7,30.00,NNW,330,0.0,0.0,26,0.00,,---,0.00,VWS V14.01,2013-09-06 07:17:00,
2013-09-06 03:22:00,56.1,21.7,30.00,NNW,330,0.0,0.0,26,0.00,,---,0.00,VWS V14.01,2013-09-06 07:22:00,
2013-09-06 03:27:00,56.3,21.9,30.00,WSW,256,0.0,0.0,26,0.00,,---,0.00,VWS V14.01,2013-09-06 07:27:00,
2013-09-06 03:32:00,56.3,21.9,30.00,NW,313,0.0,0.0,26,0.00,,---,0.00,VWS V14.01,2013-09-06 07:32:00,
2013-09-06 03:37:00,56.1,21.7,30.03,NW,313,0.0,0.0,26,0.00,,---,0.00,VWS V14.01,2013-09-06 07:37:00,
2013-09-06 03:42:00,56.1,21.7,30.03,NW,313,0.0,0.0,26,0.00,,---,0.00,VWS V14.01,2013-09-06 07:42:00,
2013-09-06 03:47:00,56.1,21.7,30.03,NNW,338,0.0,0.0,26,0.00,,---,0.00,VWS V14.01,2013-09-06 07:47:00,
2013-09-06 03:52:00,56.1,21.7,30.03,NNW,333,2.2,2.7,26,0.00,,---,0.00,VWS V14.01,2013-09-06 07:52:00,
2013-09-06 03:57:00,56.1,21.7,30.03,NW,308,4.0,4.0,26,0.00,,---,0.00,VWS V14.01,2013-09-06 07:57:00,
2013-09-06 04:02:00,56.3,21.0,30.03,NW,326,0.0,0.0,25,0.00,,---,0.00,VWS V14.01,2013-09-06 08:02:00,
2013-09-06 04:07:00,56.1,20.8,30.03,NNW,342,4.0,4.0,25,0.00,,---,0.00,VWS V14.01,2013-09-06 08:07:00,
2013-09-06 04:12:00,56.1,20.8,30.03,WSW,241,2.2,3.6,25,0.00,,---,0.00,VWS V14.01,2013-09-06 08:12:00,
2013-09-06 04:17:00,56.3,21.0,30.03,NW,318,3.1,3.1,25,0.00,,---,0.00,VWS V14.01,2013-09-06 08:17:00,
2013-09-06 04:22:00,56.1,20.8,30.03,NNW,334,0.0,0.0,25,0.00,,---,0.00,VWS V14.01,2013-09-06 08:22:00,
2013-09-06 04:27:00,56.1,20.8,30.03,NW,312,0.0,0.0,25,0.00,,---,0.00,VWS V14.01,2013-09-06 08:27:00,
2013-09-06 04:32:00,56.1,20.8,30.03,North,353,0.0,0.0,25,0.00,,---,0.00,VWS V14.01,2013-09-06 08:32:00,
2013-09-06 04:37:00,55.9,20.6,30.03,NW,307,0.0,0.0,25,0.00,,---,0.00,VWS V14.01,2013-09-06 08:37:00,
2013-09-06 04:42:00,55.9,17.7,30.03,NNW,342,0.0,0.0,22,0.00,,---,0.00,VWS V14.01,2013-09-06 08:42:00,
2013-09-06 04:47:00,55.9,17.7,30.03,WNW,293,0.0,2.7,22,0.00,,---,0.00,VWS V14.01,2013-09-06 08:47:00,
2013-09-06 04:52:00,55.9,20.6,30.03,NNE,12,0.0,0.0,25,0.00,,---,0.00,VWS V14.01,2013-09-06 08:52:00,
2013-09-06 04:57:00,55.9,20.6,30.03,WSW,251,0.0,0.0,25,0.00,,---,0.00,VWS V14.01,2013-09-06 08:57:00,
2013-09-06 05:02:00,55.9,17.7,30.03,North,0,2.7,3.1,22,0.00,,---,0.00,VWS V14.01,2013-09-06 09:02:00,
2013-09-06 05:07:00,55.8,15.3,30.03,North,0,0.0,0.0,20,0.00,,---,0.00,VWS V14.01,2013-09-06 09:07:00,
2013-09-06 05:12:00,55.8,17.5,30.03,North,357,0.0,0.0,22,0.00,,---,0.00,VWS V14.01,2013-09-06 09:12:00,
2013-09-06 05:18:00,55.6,20.3,30.03,NNW,327,3.6,4.0,25,0.00,,---,0.00,VWS V14.01,2013-09-06 09:18:00,
2013-09-06 05:22:00,55.4,17.2,30.03,NW,322,0.0,2.7,22,0.00,,---,0.00,VWS V14.01,2013-09-06 09:22:00,
2013-09-06 05:28:00,55.4,20.2,30.03,WSW,258,2.7,2.7,25,0.00,,---,0.00,VWS V14.01,2013-09-06 09:28:00,
2013-09-06 05:33:00,55.2,18.1,30.03,WSW,258,0.0,0.0,23,0.00,,---,0.00,VWS V14.01,2013-09-06 09:33:00,
2013-09-06 05:38:00,55.0,17.9,30.03,WSW,258,0.0,0.0,23,0.00,,---,0.00,VWS V14.01,2013-09-06 09:38:00,
2013-09-06 05:43:00,54.9,17.8,30.03,WSW,258,0.0,0.0,23,0.00,,---,0.00,VWS V14.01,2013-09-06 09:43:00,
2013-09-06 05:48:00,54.7,14.4,30.03,WSW,258,0.0,0.0,20,0.00,,---,0.00,VWS V14.01,2013-09-06 09:48:00,
2013-09-06 05:53:00,54.5,20.3,30.06,NNW,334,0.0,0.0,26,0.00,,---,0.00,VWS V14.01,2013-09-06 09:53:00,
2013-09-06 05:58:00,54.1,19.1,30.06,NNW,334,0.0,0.0,25,0.00,,---,0.00,VWS V14.01,2013-09-06 09:58:00,
2013-09-06 06:03:00,54.0,19.9,30.06,NNW,334,0.0,0.0,26,0.00,,---,0.00,VWS V14.01,2013-09-06 10:03:00,
2013-09-06 06:08:00,54.0,19.9,30.06,NNW,334,0.0,0.0,26,0.00,,---,0.00,VWS V14.01,2013-09-06 10:08:00,
2013-09-06 06:13:00,53.8,19.7,30.06,NNW,334,0.0,0.0,26,0.00,,---,0.00,VWS V14.01,2013-09-06 10:13:00,
2013-09-06 06:18:00,53.8,20.6,30.06,NNW,334,0.0,0.0,27,0.00,,---,0.00,VWS V14.01,2013-09-06 10:18:00,
2013-09-06 06:23:00,53.8,20.6,30.06,NNW,334,0.0,0.0,27,0.00,,---,0.00,VWS V14.01,2013-09-06 10:23:00,
2013-09-06 06:28:00,53.4,20.3,30.06,NNW,334,0.0,0.0,27,0.00,,---,0.00,VWS V14.01,2013-09-06 10:28:00,
2013-09-06 06:33:00,53.2,21.0,30.06,NNW,334,0.0,0.0,28,0.00,,---,0.00,VWS V14.01,2013-09-06 10:33:00,
2013-09-06 06:38:00,53.1,21.7,30.06,NNW,334,0.0,0.0,29,0.00,,---,0.00,VWS V14.01,2013-09-06 10:38:00,
2013-09-06 06:43:00,53.1,22.5,30.06,NNW,334,0.0,0.0,30,0.00,,---,0.00,VWS V14.01,2013-09-06 10:43:00,
2013-09-06 06:48:00,53.2,23.4,30.06,WNW,284,0.0,3.1,31,0.00,,---,0.00,VWS V14.01,2013-09-06 10:48:00,
2013-09-06 06:53:00,53.2,23.4,30.06,West,272,0.0,0.0,31,0.00,,---,0.00,VWS V14.01,2013-09-06 10:53:00,
2013-09-06 06:58:00,53.1,22.5,30.06,West,272,0.0,0.0,30,0.00,,---,0.00,VWS V14.01,2013-09-06 10:58:00,
2013-09-06 07:03:00,53.1,21.7,30.06,WSW,246,0.0,2.2,29,0.00,,---,0.00,VWS V14.01,2013-09-06 11:03:00,
2013-09-06 07:07:00,53.1,22.5,30.06,WSW,246,0.0,0.0,30,0.00,,---,0.00,VWS V14.01,2013-09-06 11:07:00,
2013-09-06 07:13:00,53.1,21.7,30.06,WSW,238,0.0,0.0,29,0.00,,---,0.00,VWS V14.01,2013-09-06 11:13:00,
2013-09-06 07:18:00,53.4,20.3,30.06,WNW,300,0.0,2.7,27,0.00,,---,0.00,VWS V14.01,2013-09-06 11:18:00,
2013-09-06 07:23:00,53.6,21.3,30.06,SW,229,0.0,0.0,28,0.00,,---,0.00,VWS V14.01,2013-09-06 11:23:00,
2013-09-06 07:28:00,53.8,21.5,30.06,SW,229,0.0,0.0,28,0.00,,---,0.00,VWS V14.01,2013-09-06 11:28:00,
2013-09-06 07:33:00,54.0,20.8,30.06,NW,325,0.0,0.0,27,0.00,,---,0.00,VWS V14.01,2013-09-06 11:33:00,
2013-09-06 07:38:00,54.3,21.9,30.09,NW,312,3.1,4.0,28,0.00,,---,0.00,VWS V14.01,2013-09-06 11:38:00,
2013-09-06 07:43:00,54.5,22.1,30.09,NW,312,0.0,0.0,28,0.00,,---,0.00,VWS V14.01,2013-09-06 11:43:00,
2013-09-06 07:48:00,54.7,21.4,30.09,NW,324,2.7,3.1,27,0.00,,---,0.00,VWS V14.01,2013-09-06 11:48:00,
2013-09-06 07:53:00,54.7,20.5,30.09,NW,326,3.6,6.3,26,0.00,,---,0.00,VWS V14.01,2013-09-06 11:53:00,
2013-09-06 07:58:00,55.0,20.8,30.09,WNW,299,2.7,2.7,26,0.00,,---,0.00,VWS V14.01,2013-09-06 11:58:00,
2013-09-06 08:03:00,55.4,20.2,30.09,NNE,14,0.0,0.0,25,0.00,,---,0.00,VWS V14.01,2013-09-06 12:03:00,
2013-09-06 08:08:00,55.6,20.3,30.09,NNW,327,3.1,3.1,25,0.00,,---,0.00,VWS V14.01,2013-09-06 12:08:00,
2013-09-06 08:13:00,55.9,17.7,30.09,NNW,335,0.0,3.1,22,0.00,,---,0.00,VWS V14.01,2013-09-06 12:13:00,
2013-09-06 08:17:00,56.1,17.8,30.09,West,274,0.0,3.6,22,0.00,,---,0.00,VWS V14.01,2013-09-06 12:17:00,
2013-09-06 08:23:00,56.5,18.1,30.09,NW,307,3.6,4.0,22,0.00,,---,0.00,VWS V14.01,2013-09-06 12:23:00,
2013-09-06 08:28:00,56.7,16.1,30.09,SSW,210,3.1,3.1,20,0.00,,---,0.00,VWS V14.01,2013-09-06 12:28:00,
2013-09-06 08:33:00,56.8,16.2,30.09,NNW,341,3.1,3.1,20,0.00,,---,0.00,VWS V14.01,2013-09-06 12:33:00,
2013-09-06 08:38:00,57.0,16.4,30.09,NW,321,4.9,4.9,20,0.00,,---,0.00,VWS V14.01,2013-09-06 12:38:00,
2013-09-06 08:43:00,57.2,12.8,30.09,NNW,336,2.7,4.9,17,0.00,,---,0.00,VWS V14.01,2013-09-06 12:43:00,
2013-09-06 08:48:00,57.6,13.1,30.09,NNE,20,3.1,4.9,17,0.00,,---,0.00,VWS V14.01,2013-09-06 12:48:00,
2013-09-06 08:53:00,58.1,13.5,30.09,WNW,294,3.6,5.4,17,0.00,,---,0.00,VWS V14.01,2013-09-06 12:53:00,
2013-09-06 08:58:00,58.5,13.8,30.09,NW,307,3.1,4.0,17,0.00,,---,0.00,VWS V14.01,2013-09-06 12:58:00,
2013-09-06 09:03:00,58.6,16.5,30.09,NW,306,2.2,2.7,19,0.00,,---,0.00,VWS V14.01,2013-09-06 13:03:00,
2013-09-06 09:08:00,59.2,14.4,30.09,NNE,31,2.7,3.1,17,0.00,,---,0.00,VWS V14.01,2013-09-06 13:08:00,
2013-09-06 09:13:00,59.5,14.7,30.09,NW,313,2.7,3.6,17,0.00,,---,0.00,VWS V14.01,2013-09-06 13:13:00,
2013-09-06 09:18:00,59.7,10.5,30.09,NW,314,0.0,0.0,14,0.00,,---,0.00,VWS V14.01,2013-09-06 13:18:00,
2013-09-06 09:23:00,60.3,10.9,30.09,WSW,242,5.4,7.2,14,0.00,,---,0.00,VWS V14.01,2013-09-06 13:23:00,
2013-09-06 09:28:00,60.4,11.0,30.09,NNW,341,0.0,0.0,14,0.00,,---,0.00,VWS V14.01,2013-09-06 13:28:00,
2013-09-06 09:33:00,60.8,11.3,30.09,NNW,343,0.0,3.1,14,0.00,,---,0.00,VWS V14.01,2013-09-06 13:33:00,
2013-09-06 09:38:00,61.3,14.8,30.09,NE,34,0.0,0.0,16,0.00,,---,0.00,VWS V14.01,2013-09-06 13:38:00,
2013-09-06 09:43:00,61.7,12.1,30.09,WSW,243,2.7,3.6,14,0.00,,---,0.00,VWS V14.01,2013-09-06 13:43:00,
2013-09-06 09:48:00,62.2,12.5,30.09,NNW,328,2.7,3.6,14,0.00,,---,0.00,VWS V14.01,2013-09-06 13:48:00,
2013-09-06 09:53:00,62.4,12.6,30.09,NW,306,3.6,3.6,14,0.00,,---,0.00,VWS V14.01,2013-09-06 13:53:00,
2013-09-06 09:58:00,62.8,11.2,30.09,NNW,334,2.7,6.3,13,0.00,,---,0.00,VWS V14.01,2013-09-06 13:58:00,
2013-09-06 10:03:00,63.1,11.5,30.09,WNW,302,0.0,3.1,13,0.00,,---,0.00,VWS V14.01,2013-09-06 14:03:00,
2013-09-06 10:08:00,63.3,11.7,30.09,WSW,255,3.6,4.5,13,0.00,,---,0.00,VWS V14.01,2013-09-06 14:08:00,
2013-09-06 10:13:00,63.9,12.1,30.09,NNW,348,4.0,4.0,13,0.00,,---,0.00,VWS V14.01,2013-09-06 14:13:00,
2013-09-06 10:18:00,64.0,12.2,30.09,SE,126,0.0,2.7,13,0.00,,---,0.00,VWS V14.01,2013-09-06 14:18:00,
2013-09-06 10:23:00,64.4,12.5,30.09,NW,311,3.1,3.1,13,0.00,,---,0.00,VWS V14.01,2013-09-06 14:23:00,
2013-09-06 10:28:00,64.9,12.9,30.09,SSE,159,3.1,3.1,13,0.00,,---,0.00,VWS V14.01,2013-09-06 14:28:00,
2013-09-06 10:33:00,65.1,7.2,30.09,West,262,2.7,2.7,10,0.00,,---,0.00,VWS V14.01,2013-09-06 14:33:00,
2013-09-06 10:38:00,65.8,13.6,30.09,NE,39,2.2,4.9,13,0.00,,---,0.00,VWS V14.01,2013-09-06 14:38:00,
2013-09-06 10:43:00,66.2,8.1,30.09,WSW,255,6.3,7.6,10,0.00,,---,0.00,VWS V14.01,2013-09-06 14:43:00,
2013-09-06 10:48:00,66.2,8.1,30.09,WNW,302,0.0,0.0,10,0.00,,---,0.00,VWS V14.01,2013-09-06 14:48:00,
2013-09-06 10:53:00,66.7,8.5,30.09,NW,311,0.0,2.7,10,0.00,,---,0.00,VWS V14.01,2013-09-06 14:53:00,
2013-09-06 10:58:00,67.1,8.7,30.09,West,266,2.7,3.6,10,0.00,,---,0.00,VWS V14.01,2013-09-06 14:58:00,
2013-09-06 11:03:00,67.1,8.7,30.09,NNW,344,0.0,3.6,10,0.00,,---,0.00,VWS V14.01,2013-09-06 15:03:00,
2013-09-06 11:08:00,67.5,9.0,30.09,WSW,255,3.1,4.0,10,0.00,,---,0.00,VWS V14.01,2013-09-06 15:08:00,
2013-09-06 11:13:00,67.8,9.3,30.09,West,272,3.1,3.1,10,0.00,,---,0.00,VWS V14.01,2013-09-06 15:13:00,
2013-09-06 11:18:00,68.2,9.6,30.09,NNW,328,4.0,6.3,10,0.00,,---,0.00,VWS V14.01,2013-09-06 15:18:00,
2013-09-06 11:23:00,68.7,10.0,30.09,NNW,328,0.0,0.0,10,0.00,,---,0.00,VWS V14.01,2013-09-06 15:23:00,
2013-09-06 11:28:00,68.7,10.0,30.09,WSW,239,2.7,4.0,10,0.00,,---,0.00,VWS V14.01,2013-09-06 15:28:00,
2013-09-06 11:33:00,68.7,10.0,30.09,West,259,0.0,0.0,10,0.00,,---,0.00,VWS V14.01,2013-09-06 15:33:00,
2013-09-06 11:38:00,69.3,10.4,30.09,NNE,25,3.1,4.9,10,0.00,,---,0.00,VWS V14.01,2013-09-06 15:38:00,
2013-09-06 11:43:00,70.3,8.9,30.09,NW,318,4.0,4.0,9,0.00,,---,0.00,VWS V14.01,2013-09-06 15:43:00,
2013-09-06 11:48:00,70.9,9.3,30.09,NNE,19,2.7,4.0,9,0.00,,---,0.00,VWS V14.01,2013-09-06 15:48:00,
2013-09-06 11:53:00,71.1,9.4,30.09,NW,320,4.9,6.3,9,0.00,,---,0.00,VWS V14.01,2013-09-06 15:53:00,
2013-09-06 11:58:00,71.1,9.4,30.09,SW,223,0.0,0.0,9,0.00,,---,0.00,VWS V14.01,2013-09-06 15:58:00,
2013-09-06 12:03:00,71.6,9.8,30.09,WSW,254,3.1,3.6,9,0.00,,---,0.00,VWS V14.01,2013-09-06 16:03:00,
2013-09-06 12:08:00,71.8,10.0,30.09,NE,44,3.1,4.9,9,0.00,,---,0.00,VWS V14.01,2013-09-06 16:08:00,
2013-09-06 12:13:00,71.8,10.0,30.09,NNE,19,0.0,0.0,9,0.00,,---,0.00,VWS V14.01,2013-09-06 16:13:00,
2013-09-06 12:18:00,72.3,10.4,30.09,WSW,252,2.2,4.0,9,0.00,,---,0.00,VWS V14.01,2013-09-06 16:18:00,
2013-09-06 12:23:00,72.1,10.2,30.09,NNW,332,2.2,3.6,9,0.00,,---,0.00,VWS V14.01,2013-09-06 16:23:00,
2013-09-06 12:28:00,72.5,10.5,30.09,West,269,2.7,3.6,9,0.00,,---,0.00,VWS V14.01,2013-09-06 16:28:00,
2013-09-06 12:33:00,72.1,10.2,30.09,NW,310,0.0,0.0,9,0.00,,---,0.00,VWS V14.01,2013-09-06 16:33:00,
2013-09-06 12:38:00,72.0,10.1,30.09,NE,40,2.7,2.7,9,0.00,,---,0.00,VWS V14.01,2013-09-06 16:38:00,
2013-09-06 12:43:00,72.9,10.8,30.09,NE,55,0.0,3.1,9,0.00,,---,0.00,VWS V14.01,2013-09-06 16:43:00,
2013-09-06 12:48:00,73.6,8.7,30.09,West,278,3.6,3.6,8,0.00,,---,0.00,VWS V14.01,2013-09-06 16:48:00,
2013-09-06 12:53:00,74.1,9.1,30.09,NW,322,0.0,0.0,8,0.00,,---,0.00,VWS V14.01,2013-09-06 16:53:00,
2013-09-06 12:58:00,74.1,9.1,30.09,NNW,328,2.2,3.1,8,0.00,,---,0.00,VWS V14.01,2013-09-06 16:58:00,
2013-09-06 13:03:00,74.5,9.4,30.09,SW,231,0.0,2.2,8,0.00,,---,0.00,VWS V14.01,2013-09-06 17:03:00,
2013-09-06 13:08:00,75.0,9.8,30.09,NNW,346,0.0,0.0,8,0.00,,---,0.00,VWS V14.01,2013-09-06 17:08:00,
2013-09-06 13:13:00,75.0,9.8,30.09,WSW,245,3.6,3.6,8,0.00,,---,0.00,VWS V14.01,2013-09-06 17:13:00,
2013-09-06 13:18:00,75.0,9.8,30.09,NNW,341,4.0,4.0,8,0.00,,---,0.00,VWS V14.01,2013-09-06 17:18:00,
2013-09-06 13:23:00,74.3,9.2,30.09,West,259,4.0,4.0,8,0.00,,---,0.00,VWS V14.01,2013-09-06 17:23:00,
2013-09-06 13:28:00,75.0,9.8,30.09,WSW,258,2.7,2.7,8,0.00,,---,0.00,VWS V14.01,2013-09-06 17:28:00,
2013-09-06 13:33:00,75.0,9.8,30.09,SW,234,2.7,2.7,8,0.00,,---,0.00,VWS V14.01,2013-09-06 17:33:00,
2013-09-06 13:38:00,75.2,9.9,30.06,NNE,26,0.0,4.0,8,0.00,,---,0.00,VWS V14.01,2013-09-06 17:38:00,
2013-09-06 13:43:00,75.4,10.0,30.06,NW,325,2.7,2.7,8,0.00,,---,0.00,VWS V14.01,2013-09-06 17:43:00,
2013-09-06 13:48:00,76.1,10.6,30.06,SSE,152,0.0,0.0,8,0.00,,---,0.00,VWS V14.01,2013-09-06 17:48:00,
2013-09-06 13:53:00,76.5,10.8,30.06,North,357,0.0,0.0,8,0.00,,---,0.00,VWS V14.01,2013-09-06 17:53:00,
2013-09-06 13:58:00,76.3,10.7,30.06,NW,305,0.0,2.2,8,0.00,,---,0.00,VWS V14.01,2013-09-06 17:58:00,
2013-09-06 14:03:00,75.9,10.4,30.06,West,260,3.1,3.1,8,0.00,,---,0.00,VWS V14.01,2013-09-06 18:03:00,
2013-09-06 14:08:00,75.4,10.0,30.06,NNW,344,0.0,3.6,8,0.00,,---,0.00,VWS V14.01,2013-09-06 18:08:00,
2013-09-06 14:13:00,76.1,10.6,30.06,NNW,330,0.0,0.0,8,0.00,,---,0.00,VWS V14.01,2013-09-06 18:13:00,
2013-09-06 14:18:00,75.9,10.4,30.06,WSW,240,5.4,6.3,8,0.00,,---,0.00,VWS V14.01,2013-09-06 18:18:00,
2013-09-06 14:23:00,77.0,11.2,30.06,North,349,2.2,3.6,8,0.00,,---,0.00,VWS V14.01,2013-09-06 18:23:00,
2013-09-06 14:28:00,77.5,11.6,30.06,NNE,32,3.6,3.6,8,0.00,,---,0.00,VWS V14.01,2013-09-06 18:28:00,
2013-09-06 14:33:00,77.9,11.9,30.06,WNW,298,0.0,0.0,8,0.00,,---,0.00,VWS V14.01,2013-09-06 18:33:00,
2013-09-06 14:38:00,77.4,11.5,30.06,NW,313,5.4,5.4,8,0.00,,---,0.00,VWS V14.01,2013-09-06 18:38:00,
2013-09-06 14:43:00,76.1,10.6,30.06,NW,326,2.7,3.1,8,0.00,,---,0.00,VWS V14.01,2013-09-06 18:43:00,
2013-09-06 14:48:00,76.6,11.0,30.06,WNW,302,5.4,5.4,8,0.00,,---,0.00,VWS V14.01,2013-09-06 18:48:00,
2013-09-06 14:53:00,77.2,11.4,30.06,WSW,252,0.0,2.7,8,0.00,,---,0.00,VWS V14.01,2013-09-06 18:53:00,
2013-09-06 14:58:00,77.2,11.4,30.06,NNW,331,2.7,4.9,8,0.00,,---,0.00,VWS V14.01,2013-09-06 18:58:00,
2013-09-06 15:03:00,77.7,11.8,30.06,NNW,331,0.0,0.0,8,0.00,,---,0.00,VWS V14.01,2013-09-06 19:03:00,
2013-09-06 15:08:00,77.4,11.5,30.03,NW,325,2.2,4.0,8,0.00,,---,0.00,VWS V14.01,2013-09-06 19:08:00,
2013-09-06 15:13:00,77.0,11.2,30.03,NE,40,2.7,4.9,8,0.00,,---,0.00,VWS V14.01,2013-09-06 19:13:00,
2013-09-06 15:18:00,76.1,10.6,30.03,WNW,299,3.1,4.0,8,0.00,,---,0.00,VWS V14.01,2013-09-06 19:18:00,
2013-09-06 15:23:00,76.5,10.8,30.03,SSW,196,2.7,2.7,8,0.00,,---,0.00,VWS V14.01,2013-09-06 19:23:00,
2013-09-06 15:28:00,76.1,10.6,30.03,WSW,244,4.0,4.0,8,0.00,,---,0.00,VWS V14.01,2013-09-06 19:28:00,
2013-09-06 15:34:00,75.0,9.8,30.03,NW,324,0.0,3.6,8,0.00,,---,0.00,VWS V14.01,2013-09-06 19:34:00,
2013-09-06 15:38:00,75.0,9.8,30.03,NW,321,5.4,5.4,8,0.00,,---,0.00,VWS V14.01,2013-09-06 19:38:00,
2013-09-06 15:44:00,74.7,9.5,30.03,NNW,335,4.0,4.0,8,0.00,,---,0.00,VWS V14.01,2013-09-06 19:44:00,
2013-09-06 15:49:00,75.4,10.0,30.03,East,98,2.2,2.2,8,0.00,,---,0.00,VWS V14.01,2013-09-06 19:49:00,
2013-09-06 15:54:00,75.0,9.8,30.03,South,189,0.0,3.6,8,0.00,,---,0.00,VWS V14.01,2013-09-06 19:54:00,
2013-09-06 15:59:00,74.7,9.5,30.03,NW,318,3.1,4.0,8,0.00,,---,0.00,VWS V14.01,2013-09-06 19:59:00,
2013-09-06 16:04:00,74.3,9.2,30.03,WNW,298,0.0,0.0,8,0.00,,---,0.00,VWS V14.01,2013-09-06 20:04:00,
2013-09-06 16:09:00,74.3,9.2,30.03,NNW,331,3.1,3.1,8,0.00,,---,0.00,VWS V14.01,2013-09-06 20:09:00,
2013-09-06 16:14:00,74.3,9.2,30.03,NNW,348,4.0,4.0,8,0.00,,---,0.00,VWS V14.01,2013-09-06 20:14:00,
2013-09-06 16:19:00,74.5,9.4,30.03,NW,304,2.7,2.7,8,0.00,,---,0.00,VWS V14.01,2013-09-06 20:19:00,
2013-09-06 16:23:00,74.5,9.4,30.03,WSW,243,2.7,2.7,8,0.00,,---,0.00,VWS V14.01,2013-09-06 20:23:00,
2013-09-06 16:29:00,74.5,9.4,30.03,NW,304,0.0,0.0,8,0.00,,---,0.00,VWS V14.01,2013-09-06 20:29:00,
2013-09-06 16:34:00,74.7,9.5,30.03,NW,307,0.0,0.0,8,0.00,,---,0.00,VWS V14.01,2013-09-06 20:34:00,
2013-09-06 16:39:00,74.8,9.6,30.00,West,272,3.6,3.6,8,0.00,,---,0.00,VWS V14.01,2013-09-06 20:39:00,
2013-09-06 16:44:00,74.3,9.2,30.00,NNW,337,3.1,3.6,8,0.00,,---,0.00,VWS V14.01,2013-09-06 20:44:00,
2013-09-06 16:49:00,73.9,9.0,30.00,WSW,256,2.7,2.7,8,0.00,,---,0.00,VWS V14.01,2013-09-06 20:49:00,
2013-09-06 16:54:00,73.9,9.0,30.00,North,2,0.0,3.1,8,0.00,,---,0.00,VWS V14.01,2013-09-06 20:54:00,
2013-09-06 16:58:00,73.9,9.0,30.00,NNW,334,3.6,3.6,8,0.00,,---,0.00,VWS V14.01,2013-09-06 20:58:00,
2013-09-06 17:03:00,73.9,9.0,30.00,North,1,0.0,0.0,8,0.00,,---,0.00,VWS V14.01,2013-09-06 21:03:00,
2013-09-06 17:08:00,73.8,8.8,30.00,North,9,0.0,0.0,8,0.00,,---,0.00,VWS V14.01,2013-09-06 21:08:00,
2013-09-06 17:13:00,73.8,8.8,30.00,East,93,0.0,0.0,8,0.00,,---,0.00,VWS V14.01,2013-09-06 21:13:00,
2013-09-06 17:18:00,73.8,8.8,30.00,East,81,0.0,0.0,8,0.00,,---,0.00,VWS V14.01,2013-09-06 21:18:00,
2013-09-06 17:23:00,73.6,8.7,30.00,SSE,168,0.0,3.6,8,0.00,,---,0.00,VWS V14.01,2013-09-06 21:23:00,
2013-09-06 17:28:00,72.9,10.8,30.00,ESE,115,0.0,0.0,9,0.00,,---,0.00,VWS V14.01,2013-09-06 21:28:00,
2013-09-06 17:33:00,72.1,10.2,30.00,SSE,164,3.6,4.9,9,0.00,,---,0.00,VWS V14.01,2013-09-06 21:33:00,
2013-09-06 17:38:00,71.8,10.0,30.00,SSE,154,0.0,4.9,9,0.00,,---,0.00,VWS V14.01,2013-09-06 21:38:00,
2013-09-06 17:43:00,71.6,9.8,30.00,SSE,162,0.0,2.2,9,0.00,,---,0.00,VWS V14.01,2013-09-06 21:43:00,
2013-09-06 17:49:00,71.4,9.7,30.00,WSW,237,0.0,0.0,9,0.00,,---,0.00,VWS V14.01,2013-09-06 21:49:00,
2013-09-06 17:54:00,71.4,9.7,30.00,South,182,0.0,2.7,9,0.00,,---,0.00,VWS V14.01,2013-09-06 21:54:00,
2013-09-06 17:59:00,71.2,9.6,30.00,North,350,0.0,2.7,9,0.00,,---,0.00,VWS V14.01,2013-09-06 21:59:00,
2013-09-06 18:04:00,70.9,9.3,30.00,ENE,63,0.0,2.7,9,0.00,,---,0.00,VWS V14.01,2013-09-06 22:04:00,
2013-09-06 18:09:00,70.5,9.0,30.00,ESE,108,2.2,3.1,9,0.00,,---,0.00,VWS V14.01,2013-09-06 22:09:00,
2013-09-06 18:14:00,70.2,8.7,30.00,ESE,111,0.0,0.0,9,0.00,,---,0.00,VWS V14.01,2013-09-06 22:14:00,
2013-09-06 18:19:00,69.8,8.5,30.00,SE,141,0.0,2.7,9,0.00,,---,0.00,VWS V14.01,2013-09-06 22:19:00,
2013-09-06 18:24:00,69.4,10.5,30.00,NNE,20,0.0,0.0,10,0.00,,---,0.00,VWS V14.01,2013-09-06 22:24:00,
2013-09-06 18:29:00,69.4,10.5,30.00,NNE,20,0.0,0.0,10,0.00,,---,0.00,VWS V14.01,2013-09-06 22:29:00,
2013-09-06 18:34:00,69.4,10.5,30.00,NNE,20,0.0,0.0,10,0.00,,---,0.00,VWS V14.01,2013-09-06 22:34:00,
2013-09-06 18:39:00,69.1,10.3,30.00,NNE,20,0.0,0.0,10,0.00,,---,0.00,VWS V14.01,2013-09-06 22:39:00,
2013-09-06 18:44:00,68.5,9.8,30.00,NNE,20,0.0,0.0,10,0.00,,---,0.00,VWS V14.01,2013-09-06 22:44:00,
2013-09-06 18:49:00,68.4,9.7,30.00,NNE,20,0.0,0.0,10,0.00,,---,0.00,VWS V14.01,2013-09-06 22:49:00,
2013-09-06 18:54:00,68.4,9.7,30.00,NNE,20,0.0,0.0,10,0.00,,---,0.00,VWS V14.01,2013-09-06 22:54:00,
2013-09-06 18:59:00,68.0,13.5,30.00,NNE,20,0.0,0.0,12,0.00,,---,0.00,VWS V14.01,2013-09-06 22:59:00,
2013-09-06 19:04:00,67.8,13.4,30.00,NNE,20,0.0,0.0,12,0.00,,---,0.00,VWS V14.01,2013-09-06 23:04:00,
2013-09-06 19:09:00,67.5,13.1,30.03,NNE,20,0.0,0.0,12,0.00,,---,0.00,VWS V14.01,2013-09-06 23:09:00,
2013-09-06 19:14:00,67.1,12.8,30.03,NNE,20,0.0,0.0,12,0.00,,---,0.00,VWS V14.01,2013-09-06 23:14:00,
2013-09-06 19:19:00,66.7,12.5,30.03,NNE,20,0.0,0.0,12,0.00,,---,0.00,VWS V14.01,2013-09-06 23:19:00,
2013-09-06 19:24:00,66.6,12.4,30.00,NNE,20,0.0,0.0,12,0.00,,---,0.00,VWS V14.01,2013-09-06 23:24:00,
2013-09-06 19:29:00,66.2,12.1,30.00,NNE,20,0.0,0.0,12,0.00,,---,0.00,VWS V14.01,2013-09-06 23:29:00,
2013-09-06 19:34:00,66.0,13.8,30.00,NNE,20,0.0,0.0,13,0.00,,---,0.00,VWS V14.01,2013-09-06 23:34:00,
2013-09-06 19:39:00,65.8,13.6,30.03,NNE,20,0.0,0.0,13,0.00,,---,0.00,VWS V14.01,2013-09-06 23:39:00,
2013-09-06 19:44:00,65.7,16.8,30.03,NNE,20,0.0,0.0,15,0.00,,---,0.00,VWS V14.01,2013-09-06 23:44:00,
2013-09-06 19:49:00,65.3,16.5,30.03,NNE,20,0.0,0.0,15,0.00,,---,0.00,VWS V14.01,2013-09-06 23:49:00,
2013-09-06 19:54:00,64.9,16.2,30.03,NNE,20,0.0,0.0,15,0.00,,---,0.00,VWS V14.01,2013-09-06 23:54:00,
2013-09-06 19:59:00,64.6,15.9,30.03,NNE,20,0.0,0.0,15,0.00,,---,0.00,VWS V14.01,2013-09-06 23:59:00,
2013-09-06 20:04:00,64.2,17.1,30.03,NNE,20,0.0,0.0,16,0.00,,---,0.00,VWS V14.01,2013-09-07 00:04:00,
2013-09-06 20:09:00,64.0,17.0,30.03,NNE,20,0.0,0.0,16,0.00,,---,0.00,VWS V14.01,2013-09-07 00:09:00,
2013-09-06 20:14:00,63.7,16.7,30.03,NNE,20,0.0,0.0,16,0.00,,---,0.00,VWS V14.01,2013-09-07 00:14:00,
2013-09-06 20:19:00,63.1,19.0,30.03,NNE,20,0.0,0.0,18,0.00,,---,0.00,VWS V14.01,2013-09-07 00:19:00,
2013-09-06 20:24:00,63.0,18.8,30.03,NNE,20,0.0,0.0,18,0.00,,---,0.00,VWS V14.01,2013-09-07 00:24:00,
2013-09-06 20:29:00,62.6,18.5,30.03,NNE,20,0.0,0.0,18,0.00,,---,0.00,VWS V14.01,2013-09-07 00:29:00,
2013-09-06 20:34:00,62.2,25.0,30.03,NNE,20,0.0,0.0,24,0.00,,---,0.00,VWS V14.01,2013-09-07 00:34:00,
2013-09-06 20:39:00,62.2,25.0,30.03,NNE,20,0.0,0.0,24,0.00,,---,0.00,VWS V14.01,2013-09-07 00:39:00,
2013-09-06 20:44:00,62.2,25.0,30.03,NNE,20,0.0,0.0,24,0.00,,---,0.00,VWS V14.01,2013-09-07 00:44:00,
2013-09-06 20:49:00,61.3,25.2,30.03,NNE,20,0.0,0.0,25,0.00,,---,0.00,VWS V14.01,2013-09-07 00:49:00,
2013-09-06 20:54:00,61.5,25.4,30.03,NNE,20,0.0,0.0,25,0.00,,---,0.00,VWS V14.01,2013-09-07 00:54:00,
2013-09-06 20:59:00,61.3,25.2,30.03,NNE,20,0.0,0.0,25,0.00,,---,0.00,VWS V14.01,2013-09-07 00:59:00,
2013-09-06 21:04:00,61.2,25.1,30.03,NNE,20,0.0,0.0,25,0.00,,---,0.00,VWS V14.01,2013-09-07 01:04:00,
2013-09-06 21:09:00,61.0,24.9,30.03,NNE,20,0.0,0.0,25,0.00,,---,0.00,VWS V14.01,2013-09-07 01:09:00,
2013-09-06 21:14:00,60.8,24.8,30.03,NNE,20,0.0,0.0,25,0.00,,---,0.00,VWS V14.01,2013-09-07 01:14:00,
2013-09-06 21:19:00,60.6,25.6,30.03,NNE,20,0.0,0.0,26,0.00,,---,0.00,VWS V14.01,2013-09-07 01:19:00,
2013-09-06 21:24:00,60.6,25.6,30.03,NNE,20,0.0,0.0,26,0.00,,---,0.00,VWS V14.01,2013-09-07 01:24:00,
2013-09-06 21:29:00,60.4,25.4,30.03,NNE,20,0.0,0.0,26,0.00,,---,0.00,VWS V14.01,2013-09-07 01:29:00,
2013-09-06 21:34:00,60.4,25.4,30.03,NNE,20,0.0,0.0,26,0.00,,---,0.00,VWS V14.01,2013-09-07 01:34:00,
2013-09-06 21:39:00,60.4,25.4,30.03,NNE,20,0.0,0.0,26,0.00,,---,0.00,VWS V14.01,2013-09-07 01:39:00,
2013-09-06 21:44:00,60.1,26.0,30.03,NNE,20,0.0,0.0,27,0.00,,---,0.00,VWS V14.01,2013-09-07 01:44:00,
2013-09-06 21:49:00,60.1,26.0,30.03,NNE,20,0.0,0.0,27,0.00,,---,0.00,VWS V14.01,2013-09-07 01:49:00,
2013-09-06 21:54:00,60.1,26.0,30.03,NNE,20,0.0,0.0,27,0.00,,---,0.00,VWS V14.01,2013-09-07 01:54:00,
2013-09-06 21:59:00,59.4,25.4,30.03,NNE,20,0.0,0.0,27,0.00,,---,0.00,VWS V14.01,2013-09-07 01:59:00,
2013-09-06 22:04:00,59.4,25.4,30.03,NNE,20,0.0,0.0,27,0.00,,---,0.00,VWS V14.01,2013-09-07 02:04:00,
2013-09-06 22:09:00,59.2,25.2,30.03,NNE,20,0.0,0.0,27,0.00,,---,0.00,VWS V14.01,2013-09-07 02:09:00,
2013-09-06 22:14:00,59.0,25.1,30.03,NNE,20,0.0,0.0,27,0.00,,---,0.00,VWS V14.01,2013-09-07 02:14:00,
2013-09-06 22:19:00,58.6,25.6,30.03,NNE,20,0.0,0.0,28,0.00,,---,0.00,VWS V14.01,2013-09-07 02:19:00,
2013-09-06 22:24:00,58.6,25.6,30.03,NNE,20,0.0,0.0,28,0.00,,---,0.00,VWS V14.01,2013-09-07 02:24:00,
2013-09-06 22:30:00,58.5,26.3,30.03,NNE,20,0.0,0.0,29,0.00,,---,0.00,VWS V14.01,2013-09-07 02:30:00,
2013-09-06 22:35:00,58.5,26.3,30.03,NNE,20,0.0,0.0,29,0.00,,---,0.00,VWS V14.01,2013-09-07 02:35:00,
2013-09-06 22:40:00,58.3,26.2,30.00,NNE,20,0.0,0.0,29,0.00,,---,0.00,VWS V14.01,2013-09-07 02:40:00,
2013-09-06 22:45:00,58.1,26.0,30.00,NNE,20,0.0,0.0,29,0.00,,---,0.00,VWS V14.01,2013-09-07 02:45:00,
2013-09-06 22:50:00,57.9,25.9,30.00,NNE,20,0.0,0.0,29,0.00,,---,0.00,VWS V14.01,2013-09-07 02:50:00,
2013-09-06 22:55:00,57.6,25.6,30.03,NNE,20,0.0,0.0,29,0.00,,---,0.00,VWS V14.01,2013-09-07 02:55:00,
2013-09-06 23:00:00,57.6,26.4,30.03,NNE,20,0.0,0.0,30,0.00,,---,0.00,VWS V14.01,2013-09-07 03:00:00,
2013-09-06 23:05:00,57.2,26.9,30.03,NNE,20,0.0,0.0,31,0.00,,---,0.00,VWS V14.01,2013-09-07 03:05:00,
2013-09-06 23:10:00,57.0,26.7,30.03,NNE,20,0.0,0.0,31,0.00,,---,0.00,VWS V14.01,2013-09-07 03:10:00,
2013-09-06 23:15:00,56.7,27.2,30.03,NNE,20,0.0,0.0,32,0.00,,---,0.00,VWS V14.01,2013-09-07 03:15:00,
2013-09-06 23:20:00,56.7,29.3,30.03,NNE,20,0.0,0.0,35,0.00,,---,0.00,VWS V14.01,2013-09-07 03:20:00,
2013-09-06 23:25:00,56.7,29.3,30.03,NNE,20,0.0,0.0,35,0.00,,---,0.00,VWS V14.01,2013-09-07 03:25:00,
2013-09-06 23:30:00,56.7,29.3,30.03,NNE,20,0.0,0.0,35,0.00,,---,0.00,VWS V14.01,2013-09-07 03:30:00,
2013-09-06 23:35:00,56.7,29.3,30.03,NNE,20,0.0,0.0,35,0.00,,---,0.00,VWS V14.01,2013-09-07 03:35:00,
2013-09-06 23:40:00,56.5,29.2,30.00,NNE,20,0.0,0.0,35,0.00,,---,0.00,VWS V14.01,2013-09-07 03:40:00,
2013-09-06 23:45:00,56.7,29.3,30.00,NNE,20,0.0,0.0,35,0.00,,---,0.00,VWS V14.01,2013-09-07 03:45:00,
2013-09-06 23:50:00,56.5,29.2,30.00,NNE,20,0.0,0.0,35,0.00,,---,0.00,VWS V14.01,2013-09-07 03:50:00,
2013-09-06 23:55:00,55.8,28.5,30.00,NNE,20,0.0,0.0,35,0.00,,---,0.00,VWS V14.01,2013-09-07 03:55:00,